sensor_id;sensor_type;location;lat;lon;timestamp;P1;durP1;ratioP1;P2;durP2;ratioP2
43682;SDS011;29285;52.128;21.060;2022-12-18T00:01:35;24.17;;;13.23;;
43682;SDS011;29285;52.128;21.060;2022-12-18T00:06:38;28.10;;;17.67;;
43682;SDS011;29285;52.128;21.060;2022-12-18T00:11:39;26.57;;;15.13;;
43682;SDS011;29285;52.128;21.060;2022-12-18T00:16:42;26.23;;;14.10;;
43682;SDS011;29285;52.128;21.060;2022-12-18T00:21:45;25.80;;;13.93;;
43682;SDS011;29285;52.128;21.060;2022-12-18T00:26:46;23.73;;;13.60;;
43682;SDS011;29285;52.128;21.060;2022-12-18T00:31:48;25.17;;;15.27;;
43682;SDS011;29285;52.128;21.060;2022-12-18T00:36:49;23.33;;;13.37;;
43682;SDS011;29285;52.128;21.060;2022-12-18T00:41:50;26.17;;;14.40;;
43682;SDS011;29285;52.128;21.060;2022-12-18T00:47:10;24.33;;;13.87;;
43682;SDS011;29285;52.128;21.060;2022-12-18T00:52:11;25.93;;;14.07;;
43682;SDS011;29285;52.128;21.060;2022-12-18T00:57:13;23.07;;;14.57;;
43682;SDS011;29285;52.128;21.060;2022-12-18T01:02:14;26.63;;;14.33;;
43682;SDS011;29285;52.128;21.060;2022-12-18T01:07:15;27.20;;;15.97;;
43682;SDS011;29285;52.128;21.060;2022-12-18T01:12:17;22.70;;;12.97;;
43682;SDS011;29285;52.128;21.060;2022-12-18T01:17:19;25.50;;;13.23;;
43682;SDS011;29285;52.128;21.060;2022-12-18T01:22:20;26.10;;;14.70;;
43682;SDS011;29285;52.128;21.060;2022-12-18T01:27:21;27.90;;;14.10;;
43682;SDS011;29285;52.128;21.060;2022-12-18T01:32:23;23.50;;;14.00;;
43682;SDS011;29285;52.128;21.060;2022-12-18T01:37:24;28.27;;;13.73;;
43682;SDS011;29285;52.128;21.060;2022-12-18T01:42:25;30.23;;;15.77;;
43682;SDS011;29285;52.128;21.060;2022-12-18T01:47:28;25.70;;;14.23;;
43682;SDS011;29285;52.128;21.060;2022-12-18T01:58:15;24.03;;;12.20;;
43682;SDS011;29285;52.128;21.060;2022-12-18T02:03:18;23.23;;;11.70;;
43682;SDS011;29285;52.128;21.060;2022-12-18T02:08:20;24.77;;;12.33;;
43682;SDS011;29285;52.128;21.060;2022-12-18T02:13:36;27.13;;;14.10;;
43682;SDS011;29285;52.128;21.060;2022-12-18T02:18:40;28.33;;;14.43;;
43682;SDS011;29285;52.128;21.060;2022-12-18T02:23:51;25.83;;;13.57;;
43682;SDS011;29285;52.128;21.060;2022-12-18T02:29:09;25.50;;;13.80;;
43682;SDS011;29285;52.128;21.060;2022-12-18T02:34:17;28.27;;;14.27;;
43682;SDS011;29285;52.128;21.060;2022-12-18T02:39:21;25.68;;;13.65;;
43682;SDS011;29285;52.128;21.060;2022-12-18T02:44:24;31.30;;;14.55;;
43682;SDS011;29285;52.128;21.060;2022-12-18T02:55:12;24.47;;;12.97;;
43682;SDS011;29285;52.128;21.060;2022-12-18T03:06:02;24.47;;;13.17;;
43682;SDS011;29285;52.128;21.060;2022-12-18T03:11:21;28.47;;;14.37;;
43682;SDS011;29285;52.128;21.060;2022-12-18T03:16:27;30.73;;;14.37;;
43682;SDS011;29285;52.128;21.060;2022-12-18T03:26:42;31.53;;;14.73;;
43682;SDS011;29285;52.128;21.060;2022-12-18T03:31:49;27.30;;;14.17;;
43682;SDS011;29285;52.128;21.060;2022-12-18T03:36:54;28.20;;;13.50;;
43682;SDS011;29285;52.128;21.060;2022-12-18T03:41:59;26.47;;;13.93;;
43682;SDS011;29285;52.128;21.060;2022-12-18T03:47:13;24.20;;;12.43;;
43682;SDS011;29285;52.128;21.060;2022-12-18T03:52:22;22.53;;;10.37;;
43682;SDS011;29285;52.128;21.060;2022-12-18T03:57:30;28.57;;;13.47;;
43682;SDS011;29285;52.128;21.060;2022-12-18T04:02:33;19.90;;;13.50;;
43682;SDS011;29285;52.128;21.060;2022-12-18T04:07:36;27.63;;;12.17;;
43682;SDS011;29285;52.128;21.060;2022-12-18T04:12:39;28.63;;;14.37;;
43682;SDS011;29285;52.128;21.060;2022-12-18T04:17:47;23.07;;;11.90;;
43682;SDS011;29285;52.128;21.060;2022-12-18T04:22:50;25.17;;;13.70;;
43682;SDS011;29285;52.128;21.060;2022-12-18T04:27:51;25.00;;;12.63;;
43682;SDS011;29285;52.128;21.060;2022-12-18T04:32:53;26.07;;;13.13;;
43682;SDS011;29285;52.128;21.060;2022-12-18T04:37:54;25.53;;;11.47;;
43682;SDS011;29285;52.128;21.060;2022-12-18T04:42:55;28.30;;;13.57;;
43682;SDS011;29285;52.128;21.060;2022-12-18T04:47:57;28.57;;;15.83;;
43682;SDS011;29285;52.128;21.060;2022-12-18T04:53:00;24.93;;;13.00;;
43682;SDS011;29285;52.128;21.060;2022-12-18T04:58:01;27.13;;;13.20;;
43682;SDS011;29285;52.128;21.060;2022-12-18T05:03:02;25.70;;;12.20;;
43682;SDS011;29285;52.128;21.060;2022-12-18T05:08:04;30.50;;;15.23;;
43682;SDS011;29285;52.128;21.060;2022-12-18T05:13:06;25.07;;;13.77;;
43682;SDS011;29285;52.128;21.060;2022-12-18T05:18:07;28.20;;;15.57;;
43682;SDS011;29285;52.128;21.060;2022-12-18T05:23:09;26.93;;;15.13;;
43682;SDS011;29285;52.128;21.060;2022-12-18T05:28:11;28.93;;;13.10;;
43682;SDS011;29285;52.128;21.060;2022-12-18T05:33:12;26.67;;;13.60;;
43682;SDS011;29285;52.128;21.060;2022-12-18T05:38:13;29.40;;;13.57;;
43682;SDS011;29285;52.128;21.060;2022-12-18T05:43:14;33.77;;;15.27;;
43682;SDS011;29285;52.128;21.060;2022-12-18T05:48:16;35.90;;;17.13;;
43682;SDS011;29285;52.128;21.060;2022-12-18T05:53:18;29.87;;;15.40;;
43682;SDS011;29285;52.128;21.060;2022-12-18T05:58:21;34.40;;;16.57;;
43682;SDS011;29285;52.128;21.060;2022-12-18T06:03:22;30.47;;;15.87;;
43682;SDS011;29285;52.128;21.060;2022-12-18T06:08:24;32.70;;;16.23;;
43682;SDS011;29285;52.128;21.060;2022-12-18T06:13:25;32.40;;;16.03;;
43682;SDS011;29285;52.128;21.060;2022-12-18T06:18:26;32.70;;;14.83;;
43682;SDS011;29285;52.128;21.060;2022-12-18T06:23:27;33.70;;;14.87;;
43682;SDS011;29285;52.128;21.060;2022-12-18T06:28:28;32.83;;;16.23;;
43682;SDS011;29285;52.128;21.060;2022-12-18T06:33:30;31.87;;;14.83;;
43682;SDS011;29285;52.128;21.060;2022-12-18T06:38:32;32.00;;;15.43;;
43682;SDS011;29285;52.128;21.060;2022-12-18T06:43:35;30.10;;;14.53;;
43682;SDS011;29285;52.128;21.060;2022-12-18T06:48:37;32.43;;;14.27;;
43682;SDS011;29285;52.128;21.060;2022-12-18T06:53:38;29.77;;;14.03;;
43682;SDS011;29285;52.128;21.060;2022-12-18T06:58:40;37.50;;;16.33;;
43682;SDS011;29285;52.128;21.060;2022-12-18T07:03:41;34.13;;;15.50;;
43682;SDS011;29285;52.128;21.060;2022-12-18T07:08:43;28.10;;;14.37;;
43682;SDS011;29285;52.128;21.060;2022-12-18T07:13:45;29.73;;;13.87;;
43682;SDS011;29285;52.128;21.060;2022-12-18T07:18:47;32.40;;;15.00;;
43682;SDS011;29285;52.128;21.060;2022-12-18T07:23:49;31.87;;;15.30;;
43682;SDS011;29285;52.128;21.060;2022-12-18T07:28:53;40.67;;;18.23;;
43682;SDS011;29285;52.128;21.060;2022-12-18T07:33:58;33.97;;;16.07;;
43682;SDS011;29285;52.128;21.060;2022-12-18T07:38:59;32.57;;;16.53;;
43682;SDS011;29285;52.128;21.060;2022-12-18T07:44:00;29.90;;;15.97;;
43682;SDS011;29285;52.128;21.060;2022-12-18T07:49:01;37.13;;;17.30;;
43682;SDS011;29285;52.128;21.060;2022-12-18T07:54:02;37.50;;;15.47;;
43682;SDS011;29285;52.128;21.060;2022-12-18T07:59:05;34.40;;;15.87;;
43682;SDS011;29285;52.128;21.060;2022-12-18T08:04:06;37.40;;;18.07;;
43682;SDS011;29285;52.128;21.060;2022-12-18T08:09:09;33.87;;;16.17;;
43682;SDS011;29285;52.128;21.060;2022-12-18T08:14:10;34.47;;;17.43;;
43682;SDS011;29285;52.128;21.060;2022-12-18T08:19:11;36.63;;;17.90;;
43682;SDS011;29285;52.128;21.060;2022-12-18T08:24:13;35.63;;;16.10;;
43682;SDS011;29285;52.128;21.060;2022-12-18T08:29:14;32.37;;;15.13;;
43682;SDS011;29285;52.128;21.060;2022-12-18T08:34:15;35.33;;;17.87;;
43682;SDS011;29285;52.128;21.060;2022-12-18T08:39:16;34.10;;;16.07;;
43682;SDS011;29285;52.128;21.060;2022-12-18T08:44:18;32.97;;;15.40;;
43682;SDS011;29285;52.128;21.060;2022-12-18T08:49:21;39.77;;;16.67;;
43682;SDS011;29285;52.128;21.060;2022-12-18T08:54:22;38.67;;;17.73;;
43682;SDS011;29285;52.128;21.060;2022-12-18T08:59:28;30.53;;;12.67;;
43682;SDS011;29285;52.128;21.060;2022-12-18T09:04:29;34.67;;;17.77;;
43682;SDS011;29285;52.128;21.060;2022-12-18T09:09:30;32.50;;;15.90;;
43682;SDS011;29285;52.128;21.060;2022-12-18T09:14:31;32.77;;;17.33;;
43682;SDS011;29285;52.128;21.060;2022-12-18T09:19:32;34.57;;;15.83;;
43682;SDS011;29285;52.128;21.060;2022-12-18T09:24:34;40.13;;;18.67;;
43682;SDS011;29285;52.128;21.060;2022-12-18T09:29:35;38.90;;;20.53;;
43682;SDS011;29285;52.128;21.060;2022-12-18T09:34:37;41.07;;;21.37;;
43682;SDS011;29285;52.128;21.060;2022-12-18T09:39:38;38.10;;;18.63;;
43682;SDS011;29285;52.128;21.060;2022-12-18T09:44:40;41.90;;;21.60;;
43682;SDS011;29285;52.128;21.060;2022-12-18T09:49:49;42.33;;;21.50;;
43682;SDS011;29285;52.128;21.060;2022-12-18T10:00:43;38.57;;;21.80;;
43682;SDS011;29285;52.128;21.060;2022-12-18T10:11:21;37.87;;;19.00;;
43682;SDS011;29285;52.128;21.060;2022-12-18T10:27:44;41.23;;;20.20;;
43682;SDS011;29285;52.128;21.060;2022-12-18T10:32:45;45.67;;;21.07;;
43682;SDS011;29285;52.128;21.060;2022-12-18T10:43:15;48.87;;;23.73;;
43682;SDS011;29285;52.128;21.060;2022-12-18T10:48:25;45.60;;;26.20;;
43682;SDS011;29285;52.128;21.060;2022-12-18T10:53:30;35.17;;;16.73;;
43682;SDS011;29285;52.128;21.060;2022-12-18T10:58:35;37.97;;;18.37;;
43682;SDS011;29285;52.128;21.060;2022-12-18T11:03:40;41.97;;;20.73;;
43682;SDS011;29285;52.128;21.060;2022-12-18T11:08:59;45.30;;;20.47;;
43682;SDS011;29285;52.128;21.060;2022-12-18T11:14:15;44.20;;;20.20;;
43682;SDS011;29285;52.128;21.060;2022-12-18T11:24:37;37.73;;;16.40;;
43682;SDS011;29285;52.128;21.060;2022-12-18T11:29:41;37.90;;;19.23;;
43682;SDS011;29285;52.128;21.060;2022-12-18T11:34:44;41.20;;;21.03;;
43682;SDS011;29285;52.128;21.060;2022-12-18T11:40:03;40.13;;;20.13;;
43682;SDS011;29285;52.128;21.060;2022-12-18T11:50:31;45.37;;;19.43;;
43682;SDS011;29285;52.128;21.060;2022-12-18T11:55:45;40.83;;;19.87;;
43682;SDS011;29285;52.128;21.060;2022-12-18T12:06:49;37.50;;;18.40;;
43682;SDS011;29285;52.128;21.060;2022-12-18T12:12:24;38.30;;;18.43;;
43682;SDS011;29285;52.128;21.060;2022-12-18T12:23:14;41.57;;;21.10;;
43682;SDS011;29285;52.128;21.060;2022-12-18T12:39:22;42.97;;;20.67;;
43682;SDS011;29285;52.128;21.060;2022-12-18T12:44:32;40.50;;;20.40;;
43682;SDS011;29285;52.128;21.060;2022-12-18T12:49:37;42.77;;;21.57;;
43682;SDS011;29285;52.128;21.060;2022-12-18T12:54:40;41.63;;;21.23;;
43682;SDS011;29285;52.128;21.060;2022-12-18T13:10:41;34.40;;;19.30;;
43682;SDS011;29285;52.128;21.060;2022-12-18T13:16:04;40.53;;;21.67;;
43682;SDS011;29285;52.128;21.060;2022-12-18T13:21:18;38.30;;;19.25;;
43682;SDS011;29285;52.128;21.060;2022-12-18T13:31:57;36.13;;;17.17;;
43682;SDS011;29285;52.128;21.060;2022-12-18T13:36:44;36.60;;;16.87;;
43682;SDS011;29285;52.128;21.060;2022-12-18T13:41:47;38.90;;;18.47;;
43682;SDS011;29285;52.128;21.060;2022-12-18T13:47:41;36.37;;;18.23;;
43682;SDS011;29285;52.128;21.060;2022-12-18T13:52:34;35.83;;;19.20;;
43682;SDS011;29285;52.128;21.060;2022-12-18T13:57:39;40.97;;;19.60;;
43682;SDS011;29285;52.128;21.060;2022-12-18T14:02:41;36.80;;;17.10;;
43682;SDS011;29285;52.128;21.060;2022-12-18T14:07:46;38.33;;;20.23;;
43682;SDS011;29285;52.128;21.060;2022-12-18T14:12:48;35.87;;;18.27;;
43682;SDS011;29285;52.128;21.060;2022-12-18T14:18:14;40.23;;;19.53;;
43682;SDS011;29285;52.128;21.060;2022-12-18T14:23:34;39.10;;;19.03;;
43682;SDS011;29285;52.128;21.060;2022-12-18T14:28:44;33.43;;;16.57;;
43682;SDS011;29285;52.128;21.060;2022-12-18T14:33:45;39.00;;;19.73;;
43682;SDS011;29285;52.128;21.060;2022-12-18T14:38:54;38.70;;;19.93;;
43682;SDS011;29285;52.128;21.060;2022-12-18T14:43:56;41.33;;;19.60;;
43682;SDS011;29285;52.128;21.060;2022-12-18T14:54:29;38.53;;;19.00;;
43682;SDS011;29285;52.128;21.060;2022-12-18T14:59:32;38.00;;;18.10;;
43682;SDS011;29285;52.128;21.060;2022-12-18T15:04:35;31.60;;;17.03;;
43682;SDS011;29285;52.128;21.060;2022-12-18T15:09:41;41.10;;;20.43;;
43682;SDS011;29285;52.128;21.060;2022-12-18T15:14:47;35.23;;;18.37;;
43682;SDS011;29285;52.128;21.060;2022-12-18T15:19:48;36.07;;;18.23;;
43682;SDS011;29285;52.128;21.060;2022-12-18T15:24:53;38.63;;;18.40;;
43682;SDS011;29285;52.128;21.060;2022-12-18T15:30:03;35.37;;;18.13;;
43682;SDS011;29285;52.128;21.060;2022-12-18T15:35:22;35.13;;;18.90;;
43682;SDS011;29285;52.128;21.060;2022-12-18T15:40:25;34.88;;;18.67;;
43682;SDS011;29285;52.128;21.060;2022-12-18T15:45:27;37.80;;;18.77;;
43682;SDS011;29285;52.128;21.060;2022-12-18T15:50:28;30.17;;;16.13;;
43682;SDS011;29285;52.128;21.060;2022-12-18T15:55:30;32.83;;;17.53;;
43682;SDS011;29285;52.128;21.060;2022-12-18T16:00:50;31.87;;;16.47;;
43682;SDS011;29285;52.128;21.060;2022-12-18T16:05:52;32.00;;;17.10;;
43682;SDS011;29285;52.128;21.060;2022-12-18T16:10:53;35.53;;;19.23;;
43682;SDS011;29285;52.128;21.060;2022-12-18T16:15:56;37.00;;;17.07;;
43682;SDS011;29285;52.128;21.060;2022-12-18T16:20:58;34.70;;;19.73;;
43682;SDS011;29285;52.128;21.060;2022-12-18T16:26:01;36.77;;;19.67;;
43682;SDS011;29285;52.128;21.060;2022-12-18T16:31:02;43.23;;;20.23;;
43682;SDS011;29285;52.128;21.060;2022-12-18T16:36:03;29.13;;;16.37;;
43682;SDS011;29285;52.128;21.060;2022-12-18T16:41:14;38.10;;;18.43;;
43682;SDS011;29285;52.128;21.060;2022-12-18T16:46:34;30.57;;;15.50;;
43682;SDS011;29285;52.128;21.060;2022-12-18T16:51:36;32.80;;;17.27;;
43682;SDS011;29285;52.128;21.060;2022-12-18T16:56:37;28.70;;;15.23;;
43682;SDS011;29285;52.128;21.060;2022-12-18T17:01:39;32.20;;;15.77;;
43682;SDS011;29285;52.128;21.060;2022-12-18T17:06:42;29.90;;;15.43;;
43682;SDS011;29285;52.128;21.060;2022-12-18T17:11:45;31.57;;;15.95;;
43682;SDS011;29285;52.128;21.060;2022-12-18T17:16:46;34.93;;;18.47;;
43682;SDS011;29285;52.128;21.060;2022-12-18T17:21:48;35.43;;;17.70;;
43682;SDS011;29285;52.128;21.060;2022-12-18T17:26:51;35.07;;;17.07;;
43682;SDS011;29285;52.128;21.060;2022-12-18T17:31:53;40.10;;;19.57;;
43682;SDS011;29285;52.128;21.060;2022-12-18T17:36:54;38.13;;;18.83;;
43682;SDS011;29285;52.128;21.060;2022-12-18T17:41:56;34.27;;;17.17;;
43682;SDS011;29285;52.128;21.060;2022-12-18T17:46:57;34.10;;;16.53;;
43682;SDS011;29285;52.128;21.060;2022-12-18T17:51:58;31.77;;;16.07;;
43682;SDS011;29285;52.128;21.060;2022-12-18T17:57:00;30.70;;;14.57;;
43682;SDS011;29285;52.128;21.060;2022-12-18T18:02:01;30.50;;;16.37;;
43682;SDS011;29285;52.128;21.060;2022-12-18T18:07:02;29.63;;;14.87;;
43682;SDS011;29285;52.128;21.060;2022-12-18T18:12:03;31.63;;;15.87;;
43682;SDS011;29285;52.128;21.060;2022-12-18T18:17:23;32.10;;;16.17;;
43682;SDS011;29285;52.128;21.060;2022-12-18T18:22:24;28.50;;;14.70;;
43682;SDS011;29285;52.128;21.060;2022-12-18T18:27:26;33.20;;;16.03;;
43682;SDS011;29285;52.128;21.060;2022-12-18T18:32:27;38.17;;;18.50;;
43682;SDS011;29285;52.128;21.060;2022-12-18T18:37:28;42.17;;;19.13;;
43682;SDS011;29285;52.128;21.060;2022-12-18T18:42:30;37.97;;;18.40;;
43682;SDS011;29285;52.128;21.060;2022-12-18T18:47:31;28.03;;;13.27;;
43682;SDS011;29285;52.128;21.060;2022-12-18T18:52:32;30.50;;;16.50;;
43682;SDS011;29285;52.128;21.060;2022-12-18T18:57:33;40.13;;;19.83;;
43682;SDS011;29285;52.128;21.060;2022-12-18T19:02:35;38.13;;;18.70;;
43682;SDS011;29285;52.128;21.060;2022-12-18T19:07:36;34.13;;;17.80;;
43682;SDS011;29285;52.128;21.060;2022-12-18T19:12:37;35.33;;;17.97;;
43682;SDS011;29285;52.128;21.060;2022-12-18T19:17:57;40.00;;;18.67;;
43682;SDS011;29285;52.128;21.060;2022-12-18T19:22:58;34.00;;;16.87;;
43682;SDS011;29285;52.128;21.060;2022-12-18T19:27:59;33.30;;;15.80;;
43682;SDS011;29285;52.128;21.060;2022-12-18T19:33:00;32.33;;;14.77;;
43682;SDS011;29285;52.128;21.060;2022-12-18T19:38:01;31.27;;;15.20;;
43682;SDS011;29285;52.128;21.060;2022-12-18T19:43:03;32.83;;;16.73;;
43682;SDS011;29285;52.128;21.060;2022-12-18T19:48:04;30.53;;;15.00;;
43682;SDS011;29285;52.128;21.060;2022-12-18T19:53:06;31.80;;;15.43;;
43682;SDS011;29285;52.128;21.060;2022-12-18T19:58:08;31.13;;;15.17;;
43682;SDS011;29285;52.128;21.060;2022-12-18T20:03:09;32.17;;;14.20;;
43682;SDS011;29285;52.128;21.060;2022-12-18T20:08:10;26.13;;;13.10;;
43682;SDS011;29285;52.128;21.060;2022-12-18T20:13:11;27.43;;;12.90;;
43682;SDS011;29285;52.128;21.060;2022-12-18T20:18:14;35.20;;;15.57;;
43682;SDS011;29285;52.128;21.060;2022-12-18T20:23:15;27.67;;;13.87;;
43682;SDS011;29285;52.128;21.060;2022-12-18T20:28:17;27.63;;;13.87;;
43682;SDS011;29285;52.128;21.060;2022-12-18T20:33:19;33.97;;;16.43;;
43682;SDS011;29285;52.128;21.060;2022-12-18T20:38:20;26.17;;;13.83;;
43682;SDS011;29285;52.128;21.060;2022-12-18T20:43:21;30.97;;;15.40;;
43682;SDS011;29285;52.128;21.060;2022-12-18T20:48:22;24.20;;;12.37;;
43682;SDS011;29285;52.128;21.060;2022-12-18T20:53:24;27.97;;;13.50;;
43682;SDS011;29285;52.128;21.060;2022-12-18T20:58:25;26.60;;;13.07;;
43682;SDS011;29285;52.128;21.060;2022-12-18T21:03:26;24.60;;;10.97;;
43682;SDS011;29285;52.128;21.060;2022-12-18T21:08:27;15.13;;;7.90;;
43682;SDS011;29285;52.128;21.060;2022-12-18T21:13:28;29.63;;;15.03;;
43682;SDS011;29285;52.128;21.060;2022-12-18T21:18:29;29.73;;;14.83;;
43682;SDS011;29285;52.128;21.060;2022-12-18T21:23:30;30.70;;;13.40;;
43682;SDS011;29285;52.128;21.060;2022-12-18T21:28:34;26.17;;;12.95;;
43682;SDS011;29285;52.128;21.060;2022-12-18T21:33:35;23.27;;;12.40;;
43682;SDS011;29285;52.128;21.060;2022-12-18T21:38:37;32.13;;;14.77;;
43682;SDS011;29285;52.128;21.060;2022-12-18T21:43:38;28.60;;;14.30;;
43682;SDS011;29285;52.128;21.060;2022-12-18T21:48:57;27.20;;;13.23;;
43682;SDS011;29285;52.128;21.060;2022-12-18T21:53:59;32.97;;;15.77;;
43682;SDS011;29285;52.128;21.060;2022-12-18T21:59:01;34.73;;;16.13;;
43682;SDS011;29285;52.128;21.060;2022-12-18T22:04:02;33.23;;;15.33;;
43682;SDS011;29285;52.128;21.060;2022-12-18T22:09:03;32.67;;;15.23;;
43682;SDS011;29285;52.128;21.060;2022-12-18T22:14:06;32.30;;;16.93;;
43682;SDS011;29285;52.128;21.060;2022-12-18T22:19:08;35.70;;;17.87;;
43682;SDS011;29285;52.128;21.060;2022-12-18T22:24:12;32.30;;;16.53;;
43682;SDS011;29285;52.128;21.060;2022-12-18T22:29:21;26.60;;;13.10;;
43682;SDS011;29285;52.128;21.060;2022-12-18T22:34:42;28.43;;;14.10;;
43682;SDS011;29285;52.128;21.060;2022-12-18T22:39:43;25.73;;;10.67;;
43682;SDS011;29285;52.128;21.060;2022-12-18T22:44:44;26.33;;;12.53;;
43682;SDS011;29285;52.128;21.060;2022-12-18T22:49:46;16.90;;;8.83;;
43682;SDS011;29285;52.128;21.060;2022-12-18T22:54:47;19.07;;;9.73;;
43682;SDS011;29285;52.128;21.060;2022-12-18T22:59:48;21.93;;;11.70;;
43682;SDS011;29285;52.128;21.060;2022-12-18T23:04:50;27.83;;;13.10;;
43682;SDS011;29285;52.128;21.060;2022-12-18T23:09:51;25.33;;;12.07;;
43682;SDS011;29285;52.128;21.060;2022-12-18T23:14:53;16.70;;;8.33;;
43682;SDS011;29285;52.128;21.060;2022-12-18T23:19:54;21.60;;;10.63;;
43682;SDS011;29285;52.128;21.060;2022-12-18T23:24:56;15.80;;;7.23;;
43682;SDS011;29285;52.128;21.060;2022-12-18T23:29:57;20.23;;;9.77;;
43682;SDS011;29285;52.128;21.060;2022-12-18T23:34:58;19.20;;;10.80;;
43682;SDS011;29285;52.128;21.060;2022-12-18T23:39:59;18.27;;;9.90;;
43682;SDS011;29285;52.128;21.060;2022-12-18T23:45:00;19.70;;;9.90;;
43682;SDS011;29285;52.128;21.060;2022-12-18T23:50:02;17.60;;;9.70;;
43682;SDS011;29285;52.128;21.060;2022-12-18T23:55:04;20.93;;;9.17;;
